Location:  
MeteoStar


Sort by weather type Sort by elevation Sort by visibility Sort from west to east north Sort from north to south Alphabetically Sort from strongest wind speed Sort from lowest to highest pressure Sort from highest to lowest dew point temperature Sort coolest temperatures to warmest Sort warm temperatures to coolest
 Metric

Current Observations for Iran, Islamic Republic of

Abadan11:00ZNot Avail.70 5041023.1N 12 709
Ahwaz11:00ZNot Avail.72 4541022.1NW 6 7265
Bandar Lengeh11:00ZHaze81 702.51017.1SW 8 8445
Bandarabbass11:00ZNot Avail.84 6341016.7SSW 8 8532
Birjand11:00ZMostly Cloudy72 3441019.8WNW 14 724891
Bojnourd11:00ZPartly Cloudy61 2841013.9WNW 14 613523
Bushehr Civ / Afb 11:00ZPartly Cloudy75 6441019.7N 12 7562
Esfahan11:00ZNot Avail.64 282.5WSW 19 Gusting to 29 645216
Fasa11:00ZNot Avail.75 4541019.6CALM754537
Gach Saran Du Gunbadan11:00ZCloudy68 6151023.2ESE 6 682421
Ghazvin11:00ZPartly Cloudy55 302.51020.8WSW 14 554192
Gorgan11:00ZClear75 4141016.1ENE 8 75508
Iranshahr11:00ZNot Avail.86 4331017.7WSW 6 831938
Jask11:00ZNot Avail.81 7341015.1W 10 859
Kerman11:00ZMostly Cloudy75 344WNW 18 755734
Kermanshah11:00ZPartly Cloudy54 252.51024.9WSW 10 514330
Khoy11:00ZClear52 2131016.0SSW 16 473631
Mashhad11:00ZMostly Cloudy73 3641015.2WSW 10 733244
Omidieh11:00ZNot Avail.73 5941023.1NW 10 7395
Orumieh11:00ZClear46 1931018.3W 12 404255
Ramsar11:00ZClear68 5241012.1SSE 8 68-75
Rasht11:00ZClear73 432.51013.1N 6 73-22
Sanandaj11:00ZClear54 272.51021.3S 17 494504
Shahre-Kord11:00ZClear55 282.5SW 19 556817
Shiraz11:00ZHaze64 5031024.4NNW 8 644875
Tabriz11:00ZPartly Cloudy46 2331019.6WSW 18 Gusting to 27 394484
Tehran-Mehrabad11:00ZClear59 212.51020.7WSW 16 593950
Yazd11:00ZClear79 3431018.8W 8 794061
Zabol11:00ZNot Avail.79 3431018.7CALM791604
Zahedan11:00ZNot Avail.79 3431019.3ESE 12 794494
Zanjan11:00ZPartly Cloudy48 283SW 16 425456

Atlantic
Tropical Watch